Nasosnyy, Azerbaijan
Current Conditions -  °F | °C
As of 11:30 AM on Saturday 25 Oct 2014 (Local Time) from UBBB Reporting Station
Overcast Overcast  
Wind Chill: 57°   Ceiling: 2000
Heat Index: 57°   Visibility: 6mi
Dew Point: 50°   Wind: 8mph
Humidity: 77%   Direction: 350°N
Pressure: 30.06"   Gusts: NA
Location:  40.62°N, 49.55°E
Report Text: UBBB 250630Z 35007KT 9999 OVC020 14/10 Q1018 88CLRD70NOSIG
Loading
Personal Weather Stations






























Interactive Weather Map
Tropical Storm Tracking
New forecast layout! Learn more

10-Day Weather Forecast

Advertisements
Track Severe Weather on mobile